Time;durP1;ratioP1;P1;durP2;ratioP2;P2;SDS_P1;SDS_P2;PMS_P1;PMS_P2;Temp;Humidity;BMP_temperature;BMP_pressure;BME280_temperature;BME280_humidity;BME280_pressure;Samples;Min_cycle;Max_cycle;Signal;HPM_P1;HPM_P2
2023/06/03 00:00:41;;;;;;;38.20;36.40;;;10.00;99.90;;;;;;4968966;28;20042;-74
2023/06/03 00:03:13;;;;;;;36.85;35.15;;;10.00;99.90;;;;;;4983703;28;20142;-75
2023/06/03 00:05:42;;;;;;;51.30;48.80;;;9.90;99.90;;;;;;4976380;28;20104;-75
2023/06/03 00:08:08;;;;;;;51.33;48.83;;;9.90;99.90;;;;;;4984769;28;20050;-75
2023/06/03 00:10:34;;;;;;;47.78;45.67;;;9.90;99.90;;;;;;4985233;28;20421;-75
2023/06/03 00:13:00;;;;;;;46.05;43.95;;;9.80;99.90;;;;;;5000330;28;20043;-75
2023/06/03 00:15:25;;;;;;;48.15;45.92;;;9.70;99.90;;;;;;4984219;28;20046;-75
2023/06/03 00:17:51;;;;;;;42.28;40.38;;;9.70;99.90;;;;;;4985061;28;20497;-75
2023/06/03 00:20:17;;;;;;;44.30;42.20;;;9.60;99.90;;;;;;4985126;28;20401;-74
2023/06/03 00:22:43;;;;;;;46.20;43.90;;;9.60;99.90;;;;;;4982947;28;20657;-75
2023/06/03 00:25:11;;;;;;;40.10;38.05;;;9.60;99.90;;;;;;4968755;28;20223;-75
2023/06/03 00:27:38;;;;;;;40.28;38.45;;;9.50;99.90;;;;;;4999901;28;20058;-75
2023/06/03 00:30:06;;;;;;;40.03;38.03;;;9.40;99.90;;;;;;4984245;28;20082;-75
2023/06/03 00:32:32;;;;;;;38.53;36.72;;;9.30;99.90;;;;;;4981818;28;20042;-75
2023/06/03 00:34:58;;;;;;;38.63;36.83;;;9.30;99.90;;;;;;4982341;28;20505;-76
2023/06/03 00:37:23;;;;;;;37.58;35.72;;;9.30;99.90;;;;;;4984534;28;20038;-77
2023/06/03 00:39:49;;;;;;;39.20;37.35;;;9.30;99.90;;;;;;4984161;28;20038;-75
2023/06/03 00:42:15;;;;;;;37.92;36.13;;;9.30;99.90;;;;;;4982680;28;20030;-75
2023/06/03 00:44:40;;;;;;;39.97;38.08;;;9.30;99.90;;;;;;4983903;28;20035;-75
2023/06/03 00:47:07;;;;;;;37.63;35.92;;;9.30;99.90;;;;;;4983582;28;20035;-75
2023/06/03 00:49:34;;;;;;;41.97;39.92;;;9.30;99.90;;;;;;4984802;28;20050;-75
2023/06/03 00:52:05;;;;;;;38.40;36.60;;;9.40;99.90;;;;;;4983505;28;20085;-75
2023/06/03 00:54:31;;;;;;;39.47;37.67;;;9.40;99.90;;;;;;4984680;28;20046;-75
2023/06/03 00:56:57;;;;;;;39.85;37.95;;;9.40;99.90;;;;;;4966726;28;20042;-75
2023/06/03 00:59:23;;;;;;;37.35;35.65;;;9.40;99.90;;;;;;4984096;28;20483;-75
2023/06/03 01:01:49;;;;;;;37.97;36.03;;;9.40;99.90;;;;;;4982939;28;20528;-75
2023/06/03 01:04:18;;;;;;;36.95;35.22;;;9.40;99.90;;;;;;4983551;28;20511;-75
2023/06/03 01:07:06;;;;;;;37.67;35.88;;;9.50;99.90;;;;;;4981913;28;20064;-75
2023/06/03 01:09:44;;;;;;;37.53;35.53;;;9.50;99.90;;;;;;4985019;28;20422;-75
2023/06/03 01:12:15;;;;;;;35.30;33.60;;;9.50;99.90;;;;;;4984537;28;20042;-75
2023/06/03 01:15:02;;;;;;;37.10;35.38;;;9.50;99.90;;;;;;4984092;28;21262;-75
2023/06/03 01:17:35;;;;;;;36.05;34.30;;;9.50;99.90;;;;;;4999252;28;20069;-75
2023/06/03 01:20:03;;;;;;;35.90;34.20;;;9.50;99.90;;;;;;4985325;28;20515;-75
2023/06/03 01:22:36;;;;;;;36.38;34.58;;;9.50;99.90;;;;;;4967513;28;20049;-75
2023/06/03 01:25:10;;;;;;;36.67;34.97;;;9.40;99.90;;;;;;4982294;28;20057;-75
2023/06/03 01:27:39;;;;;;;36.72;35.03;;;9.40;99.90;;;;;;4983059;28;20046;-75
2023/06/03 01:30:11;;;;;;;35.20;33.50;;;9.40;99.90;;;;;;4984977;28;20042;-75
2023/06/03 01:32:38;;;;;;;34.13;32.38;;;9.40;99.90;;;;;;4982439;28;20118;-74
2023/06/03 01:35:07;;;;;;;35.70;33.90;;;9.30;99.90;;;;;;5000471;28;20125;-75
2023/06/03 01:37:33;;;;;;;34.70;32.70;;;9.20;99.90;;;;;;4985053;28;20066;-75
2023/06/03 01:40:01;;;;;;;34.88;33.28;;;9.20;99.90;;;;;;4982003;28;20109;-75
2023/06/03 01:42:26;;;;;;;34.90;33.30;;;9.10;99.90;;;;;;4984067;28;20057;-75
2023/06/03 01:44:53;;;;;;;35.92;34.13;;;9.10;99.90;;;;;;4983406;28;20034;-75
2023/06/03 01:47:19;;;;;;;35.78;34.08;;;9.00;99.90;;;;;;4999129;28;20042;-74
2023/06/03 01:49:45;;;;;;;34.80;33.10;;;9.00;99.90;;;;;;4984492;28;20081;-74
2023/06/03 01:52:11;;;;;;;36.05;34.35;;;8.90;99.90;;;;;;4981230;28;20050;-75
2023/06/03 01:54:37;;;;;;;36.38;34.50;;;8.90;99.90;;;;;;4984208;28;20337;-74
2023/06/03 01:57:02;;;;;;;37.95;36.15;;;8.90;99.90;;;;;;4983020;28;20038;-77
2023/06/03 01:59:28;;;;;;;36.20;34.50;;;8.90;99.90;;;;;;4966280;28;20030;-77
2023/06/03 02:01:56;;;;;;;36.50;34.80;;;8.90;99.90;;;;;;4984193;28;20057;-77
2023/06/03 02:04:22;;;;;;;37.47;35.70;;;8.90;99.90;;;;;;4999610;28;20041;-74
2023/06/03 02:06:50;;;;;;;36.33;34.63;;;8.90;99.90;;;;;;4984498;28;20046;-75
2023/06/03 02:09:16;;;;;;;36.70;34.90;;;8.80;99.90;;;;;;4982203;28;20058;-75
2023/06/03 02:11:45;;;;;;;39.42;37.63;;;8.80;99.90;;;;;;4983121;28;20053;-75
2023/06/03 02:14:11;;;;;;;40.30;38.40;;;8.80;99.90;;;;;;4982407;28;20073;-75
2023/06/03 02:16:38;;;;;;;40.92;38.92;;;8.70;99.90;;;;;;4982770;28;20053;-77
2023/06/03 02:19:14;;;;;;;41.40;39.50;;;8.70;99.90;;;;;;4983594;28;20442;-77
2023/06/03 02:21:41;;;;;;;44.33;42.03;;;8.70;99.90;;;;;;4982965;28;20368;-74
2023/06/03 02:24:08;;;;;;;49.00;46.63;;;8.60;99.90;;;;;;4983699;28;20158;-74
2023/06/03 02:26:34;;;;;;;46.88;44.67;;;8.60;99.90;;;;;;4982763;28;20261;-75
2023/06/03 02:29:00;;;;;;;46.40;44.30;;;8.50;99.90;;;;;;4983034;28;20046;-75
2023/06/03 02:31:26;;;;;;;43.28;41.28;;;8.50;99.90;;;;;;4983739;28;20053;-75
2023/06/03 02:33:51;;;;;;;48.53;46.05;;;8.50;99.90;;;;;;4983211;28;20439;-75
2023/06/03 02:36:18;;;;;;;49.60;47.40;;;8.50;99.90;;;;;;4984491;28;20116;-76
2023/06/03 02:38:44;;;;;;;50.65;48.33;;;8.40;99.90;;;;;;4970641;28;20042;-75
2023/06/03 02:41:10;;;;;;;53.55;51.20;;;8.40;99.90;;;;;;4987210;28;20046;-74
2023/06/03 02:43:36;;;;;;;57.08;54.47;;;8.40;99.90;;;;;;4969322;28;20049;-75
2023/06/03 02:46:02;;;;;;;58.55;55.97;;;8.40;99.90;;;;;;4987317;28;20568;-75
2023/06/03 02:48:27;;;;;;;64.63;61.72;;;8.40;99.90;;;;;;4970579;28;20073;-75
2023/06/03 02:50:53;;;;;;;71.53;68.30;;;8.30;99.90;;;;;;4986347;28;20046;-75
2023/06/03 02:53:19;;;;;;;70.82;67.82;;;8.30;99.90;;;;;;4987290;28;20072;-75
2023/06/03 02:55:45;;;;;;;71.85;68.85;;;8.20;99.90;;;;;;4985202;28;20034;-75
2023/06/03 02:58:12;;;;;;;77.88;74.25;;;8.20;99.90;;;;;;5000640;28;20089;-75
2023/06/03 03:00:39;;;;;;;87.22;83.40;;;8.20;99.90;;;;;;4986562;28;20516;-75
2023/06/03 03:03:05;;;;;;;86.97;83.25;;;8.30;99.90;;;;;;4986709;28;20055;-75
2023/06/03 03:05:32;;;;;;;91.88;87.97;;;8.30;99.90;;;;;;4985602;28;20043;-75
2023/06/03 03:07:58;;;;;;;97.22;93.25;;;8.30;99.90;;;;;;4988177;28;20042;-75
2023/06/03 03:10:25;;;;;;;108.30;103.93;;;8.30;99.90;;;;;;4986587;28;20146;-75
2023/06/03 03:12:51;;;;;;;127.70;122.35;;;8.30;99.90;;;;;;4984573;28;20129;-76
2023/06/03 03:15:16;;;;;;;118.15;113.40;;;8.30;99.90;;;;;;4986094;28;20174;-75
2023/06/03 03:17:42;;;;;;;114.85;110.22;;;8.30;99.90;;;;;;4986959;28;20042;-75
2023/06/03 03:20:09;;;;;;;112.22;107.78;;;8.30;99.90;;;;;;4985574;28;20046;-75
2023/06/03 03:22:39;;;;;;;131.55;126.10;;;8.30;99.90;;;;;;4985051;28;20038;-75
2023/06/03 03:25:05;;;;;;;144.50;138.65;;;8.40;99.90;;;;;;4968498;28;20038;-75
2023/06/03 03:27:31;;;;;;;152.25;146.10;;;8.30;99.90;;;;;;4985105;28;20574;-74
2023/06/03 03:30:00;;;;;;;163.07;156.50;;;8.30;99.90;;;;;;4985446;28;20375;-75
2023/06/03 03:32:26;;;;;;;188.38;180.90;;;8.30;99.90;;;;;;4983246;28;20046;-74
2023/06/03 03:35:07;;;;;;;204.32;196.35;;;8.20;99.90;;;;;;4984477;28;20053;-75
2023/06/03 03:37:33;;;;;;;214.00;205.48;;;8.10;99.90;;;;;;4985034;28;20125;-74
2023/06/03 03:39:58;;;;;;;229.20;220.18;;;8.10;99.90;;;;;;4984468;28;20122;-75
2023/06/03 03:42:24;;;;;;;189.27;181.82;;;8.00;99.90;;;;;;4984280;28;20479;-76
2023/06/03 03:44:50;;;;;;;203.30;195.38;;;8.00;99.90;;;;;;4985836;28;20045;-75
2023/06/03 03:47:21;;;;;;;230.80;221.68;;;8.10;99.90;;;;;;4984179;28;20191;-75
2023/06/03 03:49:47;;;;;;;224.48;215.73;;;8.10;99.90;;;;;;4985797;28;20065;-74
2023/06/03 03:52:15;;;;;;;254.95;244.88;;;8.20;99.90;;;;;;4982408;28;20494;-75
2023/06/03 03:54:40;;;;;;;246.18;236.48;;;8.10;99.90;;;;;;4980072;28;20035;-75
2023/06/03 03:57:10;;;;;;;273.35;262.50;;;8.20;99.90;;;;;;4985024;28;20048;-75
2023/06/03 03:59:36;;;;;;;254.25;244.30;;;8.10;99.90;;;;;;4984490;28;20077;-75
2023/06/03 04:02:02;;;;;;;252.43;242.55;;;8.10;99.90;;;;;;4985041;28;20053;-74
2023/06/03 04:04:45;;;;;;;262.00;251.70;;;8.20;99.90;;;;;;4985359;28;20038;-75
2023/06/03 04:07:17;;;;;;;258.58;248.48;;;8.20;99.90;;;;;;4969350;28;20084;-75
2023/06/03 04:09:45;;;;;;;257.90;247.70;;;8.10;99.90;;;;;;4984056;28;20529;-75
2023/06/03 04:12:29;;;;;;;254.77;244.80;;;8.20;99.90;;;;;;4985756;28;20398;-75
2023/06/03 04:14:57;;;;;;;254.10;243.95;;;8.20;99.90;;;;;;4984421;28;20038;-75
2023/06/03 04:17:25;;;;;;;264.63;254.23;;;8.20;99.90;;;;;;4984786;28;20097;-77
2023/06/03 04:19:52;;;;;;;263.88;253.27;;;8.20;99.90;;;;;;4967269;28;20054;-77
2023/06/03 04:22:22;;;;;;;272.45;261.65;;;8.20;99.90;;;;;;4984592;28;20402;-77
2023/06/03 04:25:07;;;;;;;245.48;235.85;;;8.30;99.90;;;;;;4982103;28;20054;-77
2023/06/03 04:27:32;;;;;;;244.63;235.15;;;8.40;99.90;;;;;;4983033;28;20065;-77
2023/06/03 04:29:58;;;;;;;238.43;229.20;;;8.60;99.90;;;;;;4967577;28;20439;-77
2023/06/03 04:32:24;;;;;;;233.65;224.52;;;8.60;99.90;;;;;;4984728;28;20038;-77
2023/06/03 04:34:54;;;;;;;209.27;201.18;;;8.70;99.90;;;;;;4982261;28;20125;-77
2023/06/03 04:37:21;;;;;;;220.27;211.73;;;8.80;99.90;;;;;;4984242;28;20513;-77
2023/06/03 04:39:48;;;;;;;198.82;191.13;;;8.90;99.90;;;;;;4982205;28;20034;-77
2023/06/03 04:42:15;;;;;;;195.55;187.98;;;8.90;99.90;;;;;;4983236;28;20509;-77
2023/06/03 04:44:42;;;;;;;134.40;128.68;;;9.00;99.90;;;;;;4984914;28;20034;-78
2023/06/03 04:47:10;;;;;;;133.40;128.13;;;9.10;99.90;;;;;;4983352;28;20514;-78
2023/06/03 04:49:39;;;;;;;115.93;111.28;;;9.20;99.90;;;;;;4983196;28;20037;-78
2023/06/03 04:52:09;;;;;;;82.90;79.32;;;9.30;99.90;;;;;;4982791;28;20434;-77
2023/06/03 04:54:36;;;;;;;89.63;86.03;;;9.40;99.90;;;;;;4985802;28;20112;-77
2023/06/03 04:57:02;;;;;;;60.78;58.08;;;9.50;99.90;;;;;;4983210;28;20046;-76
2023/06/03 04:59:28;;;;;;;66.03;63.17;;;9.70;99.90;;;;;;4983895;28;20043;-76
2023/06/03 05:01:54;;;;;;;47.80;45.45;;;9.80;99.90;;;;;;4983426;28;20055;-76
2023/06/03 05:04:20;;;;;;;41.70;39.80;;;10.00;99.90;;;;;;4984769;28;20114;-76
2023/06/03 05:06:49;;;;;;;40.72;38.72;;;10.20;99.90;;;;;;4984513;28;20053;-76
2023/06/03 05:09:15;;;;;;;38.15;36.20;;;10.40;99.90;;;;;;4983352;28;20176;-75
2023/06/03 05:11:42;;;;;;;36.67;34.80;;;10.60;99.90;;;;;;5000866;28;20376;-75
2023/06/03 05:14:09;;;;;;;34.88;33.03;;;10.80;99.90;;;;;;4984025;28;20475;-76
2023/06/03 05:16:35;;;;;;;32.05;30.52;;;11.00;99.90;;;;;;4967110;28;20046;-75
2023/06/03 05:19:01;;;;;;;31.75;30.10;;;11.20;99.90;;;;;;4983344;28;20108;-76
2023/06/03 05:21:27;;;;;;;31.98;30.45;;;11.30;99.90;;;;;;4984465;28;20046;-76
2023/06/03 05:23:52;;;;;;;31.90;30.30;;;11.30;99.90;;;;;;4984420;28;20041;-77
2023/06/03 05:26:18;;;;;;;29.65;28.05;;;11.30;99.90;;;;;;4982223;28;20080;-77
2023/06/03 05:28:44;;;;;;;30.52;29.02;;;11.40;99.90;;;;;;4981012;28;20046;-76
2023/06/03 05:31:09;;;;;;;30.52;28.90;;;11.40;99.90;;;;;;4982253;28;20054;-76
2023/06/03 05:33:36;;;;;;;30.00;28.50;;;11.50;99.90;;;;;;4983108;28;20048;-76
2023/06/03 05:36:02;;;;;;;27.25;25.85;;;11.50;99.90;;;;;;4982480;28;20043;-76
2023/06/03 05:38:27;;;;;;;26.73;25.02;;;11.70;99.90;;;;;;4984037;28;20035;-77
2023/06/03 05:40:53;;;;;;;27.48;26.00;;;11.70;99.90;;;;;;4983951;28;20072;-76
2023/06/03 05:43:19;;;;;;;28.08;26.67;;;11.90;99.90;;;;;;4983975;28;20042;-78
2023/06/03 05:45:46;;;;;;;25.67;24.38;;;12.00;99.90;;;;;;4983106;28;20519;-76
2023/06/03 05:48:12;;;;;;;27.38;25.80;;;12.20;99.90;;;;;;4980213;28;20105;-78
2023/06/03 05:50:46;;;;;;;41.58;39.67;;;12.30;99.90;;;;;;4983508;28;20465;-76
2023/06/03 05:53:12;;;;;;;;;;;12.40;99.90;;;;;;4967427;28;20057;-77
2023/06/03 05:55:37;;;;;;;58.35;55.80;;;12.60;99.90;;;;;;4966893;28;19926;-79
2023/06/03 05:58:03;;;;;;;63.85;61.10;;;12.70;99.90;;;;;;4981051;28;20053;-79
2023/06/03 06:00:29;;;;;;;78.03;74.80;;;13.10;99.90;;;;;;4983356;28;20042;-79
2023/06/03 06:02:55;;;;;;;78.90;75.50;;;13.50;99.90;;;;;;4981411;28;20541;-77
2023/06/03 06:05:21;;;;;;;82.30;78.75;;;13.80;99.90;;;;;;4982997;28;20043;-78
2023/06/03 06:07:46;;;;;;;87.72;84.07;;;14.30;99.90;;;;;;4983803;28;20488;-78
2023/06/03 06:10:12;;;;;;;48.58;46.45;;;15.30;99.90;;;;;;4983977;28;20137;-78
2023/06/03 06:12:38;;;;;;;62.47;59.60;;;16.10;99.90;;;;;;4987107;28;20066;-78
2023/06/03 06:15:04;;;;;;;42.10;40.05;;;16.10;99.90;;;;;;4987805;28;20082;-77
2023/06/03 06:17:29;;;;;;;39.72;37.88;;;16.00;99.90;;;;;;4987251;28;20042;-77
2023/06/03 06:19:55;;;;;;;47.35;45.22;;;16.70;99.90;;;;;;4980492;28;20045;-77
2023/06/03 06:22:21;;;;;;;50.50;48.22;;;17.90;99.90;;;;;;4988721;28;20562;-78
2023/06/03 06:24:47;;;;;;;46.17;44.08;;;19.00;99.90;;;;;;4987082;28;20553;-79
2023/06/03 06:27:13;;;;;;;44.13;42.05;;;19.90;97.60;;;;;;4986219;28;20038;-77
2023/06/03 06:29:38;;;;;;;45.08;42.20;;;20.40;97.00;;;;;;4988733;28;20073;-79
2023/06/03 06:32:05;;;;;;;55.03;52.50;;;21.00;95.50;;;;;;4983194;28;20034;-78
2023/06/03 06:34:33;;;;;;;39.35;37.50;;;21.50;94.30;;;;;;4984573;28;20046;-78
2023/06/03 06:36:59;;;;;;;33.28;31.70;;;22.00;91.80;;;;;;4983826;28;20054;-78
2023/06/03 06:39:49;;;;;;;43.00;40.90;;;22.00;81.90;;;;;;4988924;28;20044;-78
2023/06/03 06:42:31;;;;;;;36.47;34.75;;;22.60;84.80;;;;;;4987435;28;20045;-80
2023/06/03 06:44:58;;;;;;;32.08;30.52;;;22.80;76.70;;;;;;4988605;28;20046;-79
2023/06/03 06:47:30;;;;;;;21.38;20.08;;;23.20;79.30;;;;;;4985395;28;20050;-81
2023/06/03 06:49:56;;;;;;;22.17;20.98;;;23.50;76.10;;;;;;4987193;28;20038;-80
2023/06/03 06:52:24;;;;;;;25.23;23.92;;;23.60;73.10;;;;;;4973238;28;20034;-79
2023/06/03 06:54:58;;;;;;;26.85;25.48;;;23.90;72.60;;;;;;4971048;28;20033;-79
2023/06/03 06:57:27;;;;;;;38.90;37.10;;;24.30;71.00;;;;;;4983826;28;20133;-80
2023/06/03 06:59:53;;;;;;;33.50;31.92;;;24.70;73.20;;;;;;4989360;28;20046;-81
2023/06/03 07:02:20;;;;;;;33.30;31.77;;;24.70;67.60;;;;;;4986397;28;20474;-80
2023/06/03 07:04:49;;;;;;;38.03;36.28;;;24.80;62.60;;;;;;4987250;28;20038;-79
2023/06/03 07:07:15;;;;;;;39.10;37.35;;;25.00;68.00;;;;;;4988512;28;20124;-79
2023/06/03 07:09:41;;;;;;;33.95;32.13;;;25.20;64.60;;;;;;4987496;28;20141;-79
2023/06/03 07:12:08;;;;;;;28.00;26.48;;;25.30;63.60;;;;;;5005449;28;20042;-79
2023/06/03 07:14:34;;;;;;;48.72;46.42;;;25.20;64.10;;;;;;4987329;28;20624;-82
2023/06/03 07:17:00;;;;;;;44.03;42.03;;;25.40;63.40;;;;;;4976639;28;20050;-82
2023/06/03 07:19:35;;;;;;;12.57;11.68;;;25.40;61.70;;;;;;4975245;28;20137;-80
2023/06/03 07:22:01;;;;;;;19.60;18.38;;;25.80;61.00;;;;;;4989317;28;20132;-79
2023/06/03 07:24:27;;;;;;;10.18;9.45;;;25.80;60.00;;;;;;4971346;28;20038;-79
2023/06/03 07:26:53;;;;;;;8.00;7.30;;;26.00;59.50;;;;;;4989378;28;20049;-80
2023/06/03 07:29:19;;;;;;;42.80;40.72;;;25.80;56.90;;;;;;4987936;28;20042;-81
2023/06/03 07:31:46;;;;;;;10.85;10.05;;;25.60;57.90;;;;;;4989203;28;20046;-78
2023/06/03 07:34:20;;;;;;;10.73;10.02;;;25.40;56.80;;;;;;4987845;28;20054;-81
2023/06/03 07:36:50;;;;;;;11.73;10.82;;;24.70;56.90;;;;;;4988632;28;20054;-81
2023/06/03 07:39:19;;;;;;;12.77;11.98;;;23.60;57.40;;;;;;4988764;28;20075;-81
2023/06/03 07:41:51;;;;;;;24.33;10.27;;;22.60;58.80;;;;;;4987764;28;20043;-79
2023/06/03 07:44:44;;;;;;;16.65;15.57;;;21.70;59.30;;;;;;4972337;28;20042;-79
2023/06/03 07:47:15;;;;;;;34.30;32.67;;;20.80;61.00;;;;;;4984582;28;20050;-79
2023/06/03 07:49:45;;;;;;;36.90;35.10;;;20.30;63.00;;;;;;4988655;28;20050;-79
2023/06/03 07:52:18;;;;;;;41.65;39.75;;;19.80;62.70;;;;;;4987952;28;20077;-79
2023/06/03 07:54:44;;;;;;;66.40;63.53;;;19.50;65.00;;;;;;4971989;28;20039;-79
2023/06/03 07:57:14;;;;;;;96.20;92.07;;;19.20;66.30;;;;;;4987613;28;20042;-78
2023/06/03 07:59:53;;;;;;;90.90;87.07;;;18.90;66.70;;;;;;4988431;28;20046;-79
2023/06/03 08:02:19;;;;;;;48.45;46.25;;;18.70;68.40;;;;;;4984899;28;20574;-80
2023/06/03 08:04:45;;;;;;;86.80;83.22;;;18.60;66.90;;;;;;4988227;28;20030;-79
2023/06/03 08:07:12;;;;;;;45.45;43.38;;;18.50;68.50;;;;;;4991761;28;20054;-78
2023/06/03 08:09:40;;;;;;;48.65;46.30;;;18.60;68.50;;;;;;4986943;28;20514;-79
2023/06/03 08:12:07;;;;;;;73.10;69.88;;;18.90;69.90;;;;;;4986754;28;20054;-78
2023/06/03 08:14:35;;;;;;;17.48;16.45;;;19.00;68.90;;;;;;4987449;28;20061;-78
2023/06/03 08:17:07;;;;;;;21.35;20.20;;;19.30;68.90;;;;;;4983888;28;20054;-78
2023/06/03 08:19:34;;;;;;;25.85;24.45;;;19.80;69.10;;;;;;4987289;28;20459;-79
2023/06/03 08:22:00;;;;;;;80.68;77.28;;;20.30;69.20;;;;;;4988404;28;20450;-79
2023/06/03 08:24:26;;;;;;;59.13;56.42;;;21.00;65.90;;;;;;4987379;28;20046;-79
2023/06/03 08:26:52;;;;;;;68.80;65.90;;;21.50;63.50;;;;;;4986730;28;20092;-78
2023/06/03 08:29:18;;;;;;;75.18;71.90;;;21.80;61.60;;;;;;4987456;28;20050;-78
2023/06/03 08:31:44;;;;;;;55.72;53.33;;;21.90;60.20;;;;;;4986462;28;20085;-79
2023/06/03 08:34:09;;;;;;;85.78;82.20;;;22.00;60.00;;;;;;4987260;28;20108;-81
2023/06/03 08:36:36;;;;;;;59.38;56.63;;;22.10;60.10;;;;;;4987428;28;20053;-78
2023/06/03 08:39:02;;;;;;;53.95;51.42;;;22.30;60.40;;;;;;4986698;28;20046;-79
2023/06/03 08:41:39;;;;;;;41.55;39.50;;;22.80;61.10;;;;;;4987256;28;20046;-79
2023/06/03 08:44:28;;;;;;;65.05;62.05;;;23.30;62.20;;;;;;4976007;28;20034;-80
2023/06/03 08:47:11;;;;;;;31.90;30.20;;;23.70;59.50;;;;;;4986895;28;20129;-80
2023/06/03 08:49:47;;;;;;;29.15;27.70;;;24.00;54.70;;;;;;4987720;28;20070;-81
2023/06/03 08:52:13;;;;;;;17.38;16.35;;;24.00;56.00;;;;;;4985877;28;20125;-79
2023/06/03 08:54:41;;;;;;;29.58;28.00;;;23.90;56.00;;;;;;4980337;28;20130;-78
2023/06/03 08:57:11;;;;;;;11.38;10.48;;;23.90;54.60;;;;;;4983219;28;20077;-80
2023/06/03 08:59:40;;;;;;;15.40;14.18;;;23.80;54.20;;;;;;4968096;28;20454;-79
2023/06/03 09:02:08;;;;;;;58.75;56.10;;;23.90;54.70;;;;;;4986296;28;20049;-78
2023/06/03 09:04:35;;;;;;;34.47;32.80;;;24.00;56.00;;;;;;4982504;28;20038;-79
2023/06/03 09:07:03;;;;;;;42.83;40.88;;;24.00;54.40;;;;;;4985368;28;20507;-80
2023/06/03 09:09:30;;;;;;;11.52;10.75;;;24.20;55.60;;;;;;4981766;28;20080;-81
2023/06/03 09:11:57;;;;;;;11.57;10.60;;;24.50;54.20;;;;;;4969566;28;20046;-80
2023/06/03 09:14:24;;;;;;;21.42;20.02;;;24.50;52.20;;;;;;4969668;28;20046;-79
2023/06/03 09:16:52;;;;;;;11.05;10.13;;;24.60;54.40;;;;;;4984086;28;20501;-81
2023/06/03 09:19:19;;;;;;;16.48;15.45;;;24.50;50.90;;;;;;4987212;28;20042;-80
2023/06/03 09:21:46;;;;;;;9.63;9.02;;;24.40;51.50;;;;;;4986104;28;20050;-76
2023/06/03 09:24:13;;;;;;;66.95;63.92;;;24.20;49.70;;;;;;4986860;28;20048;-79
2023/06/03 09:26:39;;;;;;;13.02;11.82;;;24.00;52.20;;;;;;4987185;28;20080;-78
2023/06/03 09:29:06;;;;;;;14.15;13.23;;;23.90;50.50;;;;;;4961880;28;20471;-79
2023/06/03 09:31:32;;;;;;;22.38;21.02;;;23.70;51.10;;;;;;4983324;28;20132;-77
2023/06/03 09:33:57;;;;;;;24.10;22.83;;;23.70;51.70;;;;;;4980565;28;20133;-77
2023/06/03 09:36:25;;;;;;;49.10;46.90;;;23.60;50.50;;;;;;4982810;28;20050;-78
2023/06/03 09:38:56;;;;;;;9.88;9.05;;;23.60;53.20;;;;;;4986755;28;20432;-79
2023/06/03 09:41:25;;;;;;;11.82;10.95;;;23.60;52.30;;;;;;4987064;28;20049;-78
2023/06/03 09:43:57;;;;;;;10.43;9.68;;;23.60;51.20;;;;;;4986832;28;20105;-79
2023/06/03 09:46:25;;;;;;;14.00;13.10;;;23.60;51.40;;;;;;4975007;28;20050;-80
2023/06/03 09:48:51;;;;;;;11.57;10.77;;;23.60;50.30;;;;;;4990531;28;20172;-78
2023/06/03 09:51:16;;;;;;;11.35;10.60;;;23.60;51.10;;;;;;4990576;28;20133;-79
2023/06/03 09:53:42;;;;;;;15.43;14.48;;;23.50;49.70;;;;;;4974073;28;20053;-77
2023/06/03 09:56:25;;;;;;;37.20;35.45;;;23.20;49.50;;;;;;4989672;28;20129;-79
2023/06/03 09:59:12;;;;;;;9.85;9.15;;;23.20;53.10;;;;;;4986998;28;20073;-79
2023/06/03 10:01:37;;;;;;;49.72;47.53;;;23.40;52.00;;;;;;4990321;28;20521;-78
2023/06/03 10:04:03;;;;;;;10.45;9.55;;;23.60;54.50;;;;;;4978378;28;20100;-79
2023/06/03 10:06:29;;;;;;;17.65;13.77;;;23.80;51.60;;;;;;4989285;28;20081;-80
2023/06/03 10:08:54;;;;;;;13.20;12.38;;;23.60;50.20;;;;;;4972930;28;20137;-78
2023/06/03 10:11:22;;;;;;;9.50;8.90;;;23.50;52.00;;;;;;5006062;28;20050;-77
2023/06/03 10:13:48;;;;;;;11.23;10.18;;;23.50;50.50;;;;;;4990308;28;20042;-77
2023/06/03 10:16:13;;;;;;;16.00;15.00;;;23.30;49.70;;;;;;4971562;28;20529;-80
2023/06/03 10:18:41;;;;;;;12.35;11.60;;;23.20;53.10;;;;;;4967443;28;20038;-79
2023/06/03 10:21:12;;;;;;;16.67;15.68;;;23.30;50.60;;;;;;4982616;28;20125;-79
2023/06/03 10:23:39;;;;;;;13.55;12.75;;;23.40;52.00;;;;;;4989122;28;20035;-79
2023/06/03 10:26:08;;;;;;;33.85;32.08;;;23.40;52.20;;;;;;4990290;28;20057;-80
2023/06/03 10:28:36;;;;;;;36.85;34.88;;;23.40;52.40;;;;;;4989447;28;20379;-80
2023/06/03 10:31:03;;;;;;;12.85;11.98;;;23.50;55.00;;;;;;4990078;28;20498;-79
2023/06/03 10:33:31;;;;;;;12.88;12.07;;;23.70;51.70;;;;;;4988373;28;20042;-78
2023/06/03 10:35:58;;;;;;;17.10;16.10;;;23.60;50.50;;;;;;4989176;28;20057;-79
2023/06/03 10:38:25;;;;;;;30.48;28.80;;;23.40;50.20;;;;;;4989596;28;20085;-79
2023/06/03 10:40:51;;;;;;;53.50;51.03;;;23.20;52.40;;;;;;4989255;28;20084;-77
2023/06/03 10:43:18;;;;;;;11.52;10.77;;;23.30;54.20;;;;;;4989614;28;20043;-79
2023/06/03 10:45:43;;;;;;;12.35;11.52;;;23.40;51.80;;;;;;4989092;28;20042;-76
2023/06/03 10:48:13;;;;;;;14.02;13.10;;;23.60;49.30;;;;;;4988654;28;20052;-79
2023/06/03 10:50:47;;;;;;;16.88;15.73;;;23.40;50.50;;;;;;4989306;28;20072;-77
2023/06/03 10:53:15;;;;;;;11.13;10.25;;;23.30;50.20;;;;;;4989712;28;20145;-80
2023/06/03 10:56:05;;;;;;;11.07;10.20;;;23.40;50.80;;;;;;4988231;28;20040;-77
2023/06/03 10:58:31;;;;;;;10.93;10.20;;;23.40;49.10;;;;;;4988898;28;20038;-78
2023/06/03 11:01:01;;;;;;;27.80;26.27;;;23.10;48.70;;;;;;4978870;28;20049;-77
2023/06/03 11:03:54;;;;;;;16.65;15.65;;;23.00;51.70;;;;;;4972389;28;20128;-79
2023/06/03 11:06:23;;;;;;;11.65;10.13;;;23.30;54.10;;;;;;4981909;28;20407;-79
2023/06/03 11:09:02;;;;;;;15.75;14.75;;;23.50;51.00;;;;;;4990674;28;20099;-77
2023/06/03 11:11:59;;;;;;;12.15;11.35;;;23.70;50.60;;;;;;4984293;28;20410;-78
2023/06/03 11:14:24;;;;;;;10.30;9.55;;;23.80;48.90;;;;;;4988647;28;20061;-78
2023/06/03 11:16:56;;;;;;;11.05;10.38;;;23.50;47.50;;;;;;4988789;28;20569;-78
2023/06/03 11:19:35;;;;;;;14.88;13.68;;;23.10;49.20;;;;;;4989734;28;20042;-79
2023/06/03 11:22:07;;;;;;;45.58;43.42;;;23.00;50.10;;;;;;4987548;28;20486;-75
2023/06/03 11:24:39;;;;;;;12.80;12.00;;;23.00;53.70;;;;;;4989458;28;20539;-75
2023/06/03 11:27:13;;;;;;;11.07;10.27;;;23.20;49.30;;;;;;4975702;28;20045;-79
2023/06/03 11:29:48;;;;;;;54.95;52.53;;;23.30;50.50;;;;;;4988764;28;20052;-79
2023/06/03 11:32:24;;;;;;;14.15;13.30;;;23.60;53.70;;;;;;4983232;28;20046;-77
2023/06/03 11:34:59;;;;;;;10.65;9.85;;;23.90;51.10;;;;;;4981449;28;20441;-79
2023/06/03 11:37:43;;;;;;;11.30;10.30;;;23.90;50.50;;;;;;4983310;28;20108;-78
2023/06/03 11:40:20;;;;;;;9.30;8.70;;;23.80;50.20;;;;;;4987735;28;20050;-78
2023/06/03 11:42:52;;;;;;;9.38;8.80;;;23.40;49.40;;;;;;4988128;28;20120;-78
2023/06/03 11:45:29;;;;;;;9.43;8.57;;;23.30;51.00;;;;;;4985660;28;20204;-76
2023/06/03 11:47:56;;;;;;;9.43;8.85;;;23.40;51.40;;;;;;4988052;28;20045;-78
2023/06/03 11:50:24;;;;;;;7.55;7.05;;;23.70;53.20;;;;;;4988449;28;20117;-78
2023/06/03 11:52:49;;;;;;;6.57;6.13;;;24.10;53.60;;;;;;4988067;28;20046;-78
2023/06/03 11:55:23;;;;;;;5.43;5.03;;;24.30;51.50;;;;;;4988522;28;20042;-77
2023/06/03 11:57:49;;;;;;;5.05;4.75;;;24.40;49.90;;;;;;4988585;28;20031;-76
2023/06/03 12:00:17;;;;;;;4.95;4.55;;;24.30;49.60;;;;;;4988519;28;20088;-79
2023/06/03 12:02:46;;;;;;;4.63;4.40;;;24.20;48.90;;;;;;4988181;28;20038;-78
2023/06/03 12:05:15;;;;;;;5.55;4.60;;;24.00;49.50;;;;;;4983925;28;20042;-79
2023/06/03 12:07:55;;;;;;;5.43;5.05;;;24.00;50.50;;;;;;4989463;28;20065;-78
2023/06/03 12:10:21;;;;;;;5.38;4.97;;;23.90;49.90;;;;;;4986380;28;20454;-77
2023/06/03 12:12:54;;;;;;;12.80;12.00;;;24.00;49.90;;;;;;4987735;28;20050;-77
2023/06/03 12:15:21;;;;;;;10.57;9.73;;;24.10;51.80;;;;;;4987605;28;20479;-80
2023/06/03 12:17:47;;;;;;;4.07;3.83;;;24.40;50.80;;;;;;4987312;28;20046;-77
2023/06/03 12:20:28;;;;;;;4.88;4.38;;;24.50;47.30;;;;;;4987788;28;20125;-79
2023/06/03 12:23:01;;;;;;;5.00;4.60;;;24.20;47.60;;;;;;4986799;28;20045;-77
2023/06/03 12:25:27;;;;;;;6.28;5.90;;;24.00;48.10;;;;;;4961078;28;20078;-76
2023/06/03 12:27:54;;;;;;;5.82;5.50;;;23.80;46.80;;;;;;4987966;28;20063;-78
2023/06/03 12:30:32;;;;;;;6.55;6.00;;;23.80;52.50;;;;;;5137233;27;20971;-75
2023/06/03 12:32:58;;;;;;;10.25;9.65;;;24.00;49.50;;;;;;5101806;28;20402;-76
2023/06/03 12:35:25;;;;;;;6.57;6.13;;;24.30;49.20;;;;;;5106524;28;20043;-74
2023/06/03 12:38:09;;;;;;;10.30;9.60;;;24.20;46.40;;;;;;5107743;28;20399;-77